createdAt,value
2023-05-20T00:02:12.513Z,7.60
2023-05-20T00:05:01.071Z,7.30
2023-05-20T00:07:50.983Z,8.73
2023-05-20T00:10:39.589Z,7.90
2023-05-20T00:13:28.196Z,7.87
2023-05-20T00:16:16.724Z,7.80
2023-05-20T00:19:05.606Z,8.77
2023-05-20T00:21:54.172Z,8.17
2023-05-20T00:24:44.023Z,7.57
2023-05-20T00:27:32.546Z,8.80
2023-05-20T00:30:21.751Z,10.20
2023-05-20T00:33:10.540Z,8.13
2023-05-20T00:35:59.164Z,8.47
2023-05-20T00:38:47.621Z,7.37
2023-05-20T00:41:37.551Z,8.00
2023-05-20T00:44:26.742Z,8.10
2023-05-20T00:47:15.348Z,7.33
2023-05-20T00:50:04.380Z,7.77
2023-05-20T00:52:55.318Z,8.47
2023-05-20T00:55:43.817Z,6.63
2023-05-20T00:58:33.733Z,6.73
2023-05-20T01:01:22.293Z,7.33
2023-05-20T01:04:10.975Z,8.03
2023-05-20T01:07:01.015Z,7.67
2023-05-20T01:09:49.597Z,7.90
2023-05-20T01:12:40.432Z,7.83
2023-05-20T01:15:30.988Z,7.13
2023-05-20T01:18:20.545Z,7.50
2023-05-20T01:21:12.498Z,7.97
2023-05-20T01:24:04.085Z,7.53
2023-05-20T01:26:52.611Z,7.67
2023-05-20T01:29:42.035Z,7.57
2023-05-20T01:32:34.065Z,8.10
2023-05-20T01:35:23.717Z,7.07
2023-05-20T01:38:12.536Z,6.70
2023-05-20T01:41:04.529Z,7.30
2023-05-20T01:43:53.069Z,8.43
2023-05-20T01:46:41.727Z,7.33
2023-05-20T01:49:30.320Z,6.40
2023-05-20T01:52:18.819Z,7.37
2023-05-20T01:55:07.897Z,7.47
2023-05-20T01:57:57.789Z,6.80
2023-05-20T02:00:46.661Z,6.57
2023-05-20T02:03:35.239Z,7.40
2023-05-20T02:06:23.716Z,7.07
2023-05-20T02:09:12.271Z,6.43
2023-05-20T02:12:00.815Z,6.93
2023-05-20T02:14:51.199Z,8.57
2023-05-20T02:17:40.455Z,6.60
2023-05-20T02:20:29.119Z,7.70
2023-05-20T02:23:17.736Z,6.13
2023-05-20T02:26:06.576Z,7.57
2023-05-20T02:28:55.090Z,6.13
2023-05-20T02:31:44.999Z,6.53
2023-05-20T02:34:33.550Z,6.30
2023-05-20T02:37:22.124Z,6.57
2023-05-20T02:40:12.002Z,6.23
2023-05-20T02:43:01.446Z,7.00
2023-05-20T02:45:50.241Z,8.40
2023-05-20T02:48:40.176Z,6.30
2023-05-20T02:51:28.762Z,7.10
2023-05-20T02:54:17.585Z,6.30
2023-05-20T02:57:06.460Z,7.30
2023-05-20T02:59:55.738Z,6.60
2023-05-20T03:02:44.267Z,6.50
2023-05-20T03:05:37.640Z,5.77
2023-05-20T03:08:26.959Z,5.37
2023-05-20T03:11:16.049Z,5.97
2023-05-20T03:14:04.595Z,6.13
2023-05-20T03:16:55.416Z,6.17
2023-05-20T03:19:43.956Z,6.00
2023-05-20T03:22:33.890Z,6.60
2023-05-20T03:25:23.847Z,6.23
2023-05-20T03:28:12.827Z,5.40
2023-05-20T03:31:02.528Z,5.47
2023-05-20T03:33:51.185Z,6.50
2023-05-20T03:36:40.102Z,6.30
2023-05-20T03:39:29.915Z,6.23
2023-05-20T03:42:18.395Z,6.53
2023-05-20T03:45:07.775Z,6.20
2023-05-20T03:47:56.712Z,6.10
2023-05-20T03:50:45.225Z,6.30
2023-05-20T03:53:33.745Z,5.83
2023-05-20T03:56:23.679Z,5.53
2023-05-20T03:59:12.158Z,5.20
2023-05-20T04:02:00.681Z,6.57
2023-05-20T04:04:52.880Z,6.40
2023-05-20T04:07:41.526Z,6.33
2023-05-20T04:10:32.010Z,6.10
2023-05-20T04:13:21.933Z,14.10
2023-05-20T04:16:10.505Z,7.37
2023-05-20T04:19:01.017Z,5.77
2023-05-20T04:21:49.621Z,6.50
2023-05-20T04:24:38.190Z,6.03
2023-05-20T04:27:27.022Z,5.50
2023-05-20T04:30:18.002Z,6.50
2023-05-20T04:33:06.605Z,7.73
2023-05-20T04:35:58.620Z,5.90
2023-05-20T04:38:48.253Z,6.00
2023-05-20T04:41:37.387Z,5.70
2023-05-20T04:44:26.543Z,6.83
2023-05-20T04:47:16.659Z,6.13
2023-05-20T04:50:06.164Z,5.77
2023-05-20T04:52:55.573Z,5.60
2023-05-20T04:55:44.581Z,6.80
2023-05-20T04:58:33.335Z,6.13
2023-05-20T05:01:21.842Z,5.27
2023-05-20T05:04:11.757Z,5.80
2023-05-20T05:07:00.316Z,5.17
2023-05-20T05:09:48.814Z,5.17
2023-05-20T05:12:37.316Z,5.23
2023-05-20T05:15:25.849Z,6.03
2023-05-20T05:18:18.414Z,6.30
2023-05-20T05:21:08.290Z,5.40
2023-05-20T05:23:58.305Z,7.00
2023-05-20T05:26:47.057Z,6.30
2023-05-20T05:29:35.548Z,6.10
2023-05-20T05:32:24.074Z,6.50
2023-05-20T05:35:12.815Z,5.30
2023-05-20T05:38:03.116Z,5.53
2023-05-20T05:40:51.793Z,5.20
2023-05-20T05:43:40.402Z,6.70
2023-05-20T05:46:28.961Z,5.83
2023-05-20T05:49:17.538Z,5.10
2023-05-20T05:52:06.877Z,5.93
2023-05-20T05:54:56.704Z,4.90
2023-05-20T05:57:45.343Z,5.60
2023-05-20T06:00:33.935Z,7.43
2023-05-20T06:03:22.534Z,7.97
2023-05-20T06:06:11.234Z,4.80
2023-05-20T06:08:59.952Z,5.70
2023-05-20T06:11:49.897Z,5.30
2023-05-20T06:14:38.465Z,4.90
2023-05-20T06:17:27.016Z,5.93
2023-05-20T06:20:15.843Z,5.83
2023-05-20T06:23:04.395Z,6.40
2023-05-20T06:25:53.041Z,6.60
2023-05-20T06:28:42.927Z,4.90
2023-05-20T06:31:31.484Z,5.20
2023-05-20T06:34:20.116Z,7.30
2023-05-20T06:37:08.663Z,7.03
2023-05-20T06:39:57.240Z,7.40
2023-05-20T06:42:45.804Z,7.63
2023-05-20T06:45:35.874Z,8.87
2023-05-20T06:48:24.465Z,6.53
2023-05-20T06:51:12.961Z,7.90
2023-05-20T06:54:01.530Z,7.10
2023-05-20T06:56:50.050Z,7.80
2023-05-20T06:59:38.887Z,7.07
2023-05-20T07:02:28.888Z,6.83
2023-05-20T07:05:17.718Z,8.30
2023-05-20T07:08:06.837Z,7.67
2023-05-20T07:10:56.716Z,6.80
2023-05-20T07:13:45.192Z,7.23
2023-05-20T07:16:35.281Z,7.37
2023-05-20T07:19:25.346Z,7.40
2023-05-20T07:22:13.900Z,7.07
2023-05-20T07:25:02.440Z,7.50
2023-05-20T07:27:51.066Z,7.47
2023-05-20T07:30:39.646Z,7.33
2023-05-20T07:33:29.622Z,6.73
2023-05-20T07:36:19.593Z,7.67
2023-05-20T07:39:12.527Z,8.20
2023-05-20T07:42:03.532Z,7.77
2023-05-20T07:44:52.075Z,7.47
2023-05-20T07:47:40.772Z,7.73
2023-05-20T07:50:29.612Z,7.17
2023-05-20T07:53:19.992Z,12.10
2023-05-20T07:56:08.760Z,8.07
2023-05-20T07:58:59.211Z,7.80
2023-05-20T08:01:47.807Z,7.80
2023-05-20T08:04:36.988Z,7.60
2023-05-20T08:07:25.606Z,8.23
2023-05-20T08:10:15.768Z,9.73
2023-05-20T08:13:04.448Z,7.67
2023-05-20T08:15:54.731Z,8.73
2023-05-20T08:18:43.596Z,8.33
2023-05-20T08:21:32.323Z,7.87
2023-05-20T08:24:20.933Z,10.60
2023-05-20T08:27:10.827Z,8.30
2023-05-20T08:30:00.923Z,9.53
2023-05-20T08:32:49.749Z,7.57
2023-05-20T08:35:39.588Z,8.07
2023-05-20T08:38:28.331Z,8.03
2023-05-20T08:41:16.984Z,8.10
2023-05-20T08:44:07.396Z,7.53
2023-05-20T08:46:56.926Z,7.33
2023-05-20T08:49:45.533Z,7.30
2023-05-20T08:52:35.824Z,7.60
2023-05-20T08:55:27.826Z,8.07
2023-05-20T08:58:17.753Z,7.73
2023-05-20T09:01:09.457Z,8.00
2023-05-20T09:03:58.108Z,8.60
2023-05-20T09:06:47.715Z,7.57
2023-05-20T09:09:36.650Z,7.33
2023-05-20T09:12:25.201Z,8.30
2023-05-20T09:15:13.704Z,7.50
2023-05-20T09:18:04.791Z,8.67
2023-05-20T09:20:53.802Z,7.70
2023-05-20T09:23:48.321Z,6.90
2023-05-20T09:26:37.076Z,8.03
2023-05-20T09:29:25.973Z,7.80
2023-05-20T09:32:14.869Z,7.53
2023-05-20T09:35:06.234Z,10.43
2023-05-20T09:37:56.044Z,7.27
2023-05-20T09:40:45.693Z,7.60
2023-05-20T09:43:34.225Z,6.60
2023-05-20T09:46:22.927Z,6.87
2023-05-20T09:49:12.448Z,6.50
2023-05-20T09:52:03.755Z,6.73
2023-05-20T09:54:56.396Z,7.50
2023-05-20T09:57:45.098Z,7.43
2023-05-20T10:00:34.519Z,8.03
2023-05-20T10:03:24.128Z,6.57
2023-05-20T10:06:26.725Z,7.50
2023-05-20T10:09:27.444Z,6.90
2023-05-20T10:12:23.581Z,7.33
2023-05-20T10:15:17.853Z,6.80
2023-05-20T10:18:14.456Z,7.03
2023-05-20T10:21:03.040Z,7.23
2023-05-20T10:23:52.096Z,8.93
2023-05-20T10:26:42.744Z,6.77
2023-05-20T10:29:31.945Z,7.17
2023-05-20T10:32:27.790Z,7.87
2023-05-20T10:35:22.987Z,7.10
2023-05-20T10:38:12.611Z,6.67
2023-05-20T10:41:09.409Z,6.70
2023-05-20T10:44:03.395Z,6.57
2023-05-20T10:47:21.008Z,6.87
2023-05-20T10:50:27.597Z,6.97
2023-05-20T10:53:25.624Z,6.97
2023-05-20T10:56:22.598Z,7.23
2023-05-20T10:59:12.544Z,7.50
2023-05-20T11:02:01.679Z,7.07
2023-05-20T11:04:50.574Z,6.30
2023-05-20T11:07:39.085Z,6.97
2023-05-20T11:10:27.640Z,6.60
2023-05-20T11:13:16.267Z,8.07
2023-05-20T11:16:06.771Z,7.00
2023-05-20T11:18:55.841Z,7.00
2023-05-20T11:21:45.231Z,7.13
2023-05-20T11:24:33.817Z,6.87
2023-05-20T11:27:22.813Z,6.23
2023-05-20T11:30:12.677Z,6.23
2023-05-20T11:33:03.223Z,6.83
2023-05-20T11:35:53.742Z,6.57
2023-05-20T11:38:42.385Z,7.17
2023-05-20T11:41:30.951Z,6.80
2023-05-20T11:44:21.083Z,6.10
2023-05-20T11:47:09.611Z,7.70
2023-05-20T11:49:59.561Z,6.03
2023-05-20T11:52:48.218Z,6.53
2023-05-20T11:55:46.393Z,7.23
2023-05-20T11:58:35.081Z,8.80
2023-05-20T12:01:23.713Z,7.47
2023-05-20T12:04:14.808Z,7.27
2023-05-20T12:07:09.175Z,7.07
2023-05-20T12:09:57.698Z,7.50
2023-05-20T12:12:46.366Z,6.70
2023-05-20T12:15:34.947Z,7.30
2023-05-20T12:18:23.626Z,8.80
2023-05-20T12:21:12.109Z,7.80
2023-05-20T12:24:01.992Z,7.83
2023-05-20T12:26:50.815Z,6.47
2023-05-20T12:29:39.390Z,7.40
2023-05-20T12:32:27.951Z,8.47
2023-05-20T12:35:16.724Z,6.70
2023-05-20T12:38:05.455Z,7.87
2023-05-20T12:40:55.460Z,6.43
2023-05-20T12:43:43.997Z,7.47
2023-05-20T12:46:32.630Z,6.70
2023-05-20T12:49:21.191Z,7.33
2023-05-20T12:52:18.840Z,7.10
2023-05-20T12:55:13.755Z,7.70
2023-05-20T12:58:03.720Z,7.60
2023-05-20T13:00:52.217Z,6.57
2023-05-20T13:03:41.178Z,7.00
2023-05-20T13:06:29.718Z,7.80
2023-05-20T13:09:18.354Z,7.33
2023-05-20T13:12:07.553Z,7.33
2023-05-20T13:14:57.445Z,7.97
2023-05-20T13:17:46.121Z,7.43
2023-05-20T13:20:35.045Z,6.87
2023-05-20T13:23:23.750Z,7.13
2023-05-20T13:26:12.396Z,7.63
2023-05-20T13:29:00.928Z,7.40
2023-05-20T13:31:50.837Z,7.93
2023-05-20T13:34:39.577Z,6.93
2023-05-20T13:37:28.154Z,9.03
2023-05-20T13:40:17.480Z,7.07
2023-05-20T13:43:06.166Z,7.40
2023-05-20T13:45:54.688Z,8.17
2023-05-20T13:48:44.609Z,7.70
2023-05-20T13:51:33.244Z,8.13
2023-05-20T13:54:22.009Z,8.47
2023-05-20T13:57:10.603Z,7.50
2023-05-20T13:59:59.149Z,7.73
2023-05-20T14:02:47.829Z,7.23
2023-05-20T14:05:37.790Z,6.80
2023-05-20T14:08:26.550Z,6.87
2023-05-20T14:11:15.063Z,7.23
2023-05-20T14:14:03.570Z,7.20
2023-05-20T14:16:52.128Z,7.03
2023-05-20T14:19:40.757Z,8.70
2023-05-20T14:22:30.843Z,6.83
2023-05-20T14:25:19.365Z,6.97
2023-05-20T14:28:07.858Z,7.33
2023-05-20T14:30:56.336Z,7.10
2023-05-20T14:33:44.956Z,8.17
2023-05-20T14:36:33.555Z,7.97
2023-05-20T14:39:23.415Z,7.63
2023-05-20T14:42:12.649Z,7.50
2023-05-20T14:45:01.160Z,6.37
2023-05-20T14:47:49.711Z,8.03
2023-05-20T14:50:38.345Z,7.67
2023-05-20T14:53:27.093Z,7.50
2023-05-20T14:56:17.128Z,12.10
2023-05-20T14:59:05.625Z,8.93
2023-05-20T15:01:54.152Z,7.30
2023-05-20T15:04:45.086Z,10.87
2023-05-20T15:07:33.583Z,8.57
2023-05-20T15:10:22.206Z,6.93
2023-05-20T15:13:12.118Z,7.67
2023-05-20T15:16:00.921Z,7.93
2023-05-20T15:18:49.457Z,7.70
2023-05-20T15:21:37.989Z,7.40
2023-05-20T15:24:26.616Z,7.20
2023-05-20T15:27:15.098Z,7.40
2023-05-20T15:30:05.807Z,7.53
2023-05-20T15:32:54.437Z,8.17
2023-05-20T15:35:43.025Z,7.73
2023-05-20T15:38:31.600Z,7.60
2023-05-20T15:41:21.722Z,8.80
2023-05-20T15:44:10.676Z,9.30
2023-05-20T15:47:00.517Z,7.80
2023-05-20T15:49:49.099Z,7.73
2023-05-20T15:52:37.774Z,8.13
2023-05-20T15:55:26.658Z,8.20
2023-05-20T15:58:15.167Z,7.70
2023-05-20T16:01:03.786Z,7.07
2023-05-20T16:03:56.848Z,10.00
2023-05-20T16:06:46.750Z,7.97
2023-05-20T16:09:35.423Z,8.10
2023-05-20T16:12:24.352Z,8.30
2023-05-20T16:15:13.124Z,9.27
2023-05-20T16:18:01.738Z,8.37
2023-05-20T16:20:51.748Z,7.63
2023-05-20T16:23:40.536Z,8.30
2023-05-20T16:26:31.371Z,8.10
2023-05-20T16:29:19.915Z,8.17
2023-05-20T16:32:08.801Z,7.80
2023-05-20T16:34:58.006Z,8.90
2023-05-20T16:37:50.706Z,8.60
2023-05-20T16:40:39.643Z,8.73
2023-05-20T16:43:28.175Z,8.70
2023-05-20T16:46:16.720Z,8.23
2023-05-20T16:49:05.507Z,9.17
2023-05-20T16:51:54.136Z,9.37
2023-05-20T16:54:44.069Z,8.63
2023-05-20T16:57:32.663Z,8.07
2023-05-20T17:00:21.250Z,7.73
2023-05-20T17:03:09.875Z,9.10
2023-05-20T17:05:58.449Z,7.20
2023-05-20T17:08:47.004Z,8.90
2023-05-20T17:11:36.900Z,8.13
2023-05-20T17:14:25.423Z,8.70
2023-05-20T17:17:14.931Z,7.80
2023-05-20T17:20:05.362Z,8.47
2023-05-20T17:22:53.919Z,8.53
2023-05-20T17:25:42.575Z,9.10
2023-05-20T17:28:32.436Z,9.53
2023-05-20T17:31:21.781Z,8.03
2023-05-20T17:34:10.494Z,8.53
2023-05-20T17:36:59.025Z,8.77
2023-05-20T17:39:47.574Z,8.73
2023-05-20T17:42:36.119Z,8.37
2023-05-20T17:45:26.042Z,8.73
2023-05-20T17:48:14.819Z,10.70
2023-05-20T17:51:03.422Z,8.23
2023-05-20T17:53:51.988Z,9.90
2023-05-20T17:56:40.697Z,8.47
2023-05-20T17:59:29.224Z,8.63
2023-05-20T18:02:19.266Z,9.30
2023-05-20T18:05:09.900Z,9.37
2023-05-20T18:07:58.452Z,9.83
2023-05-20T18:10:47.005Z,10.20
2023-05-20T18:13:35.527Z,9.70
2023-05-20T18:16:24.125Z,9.40
2023-05-20T18:19:15.099Z,10.10
2023-05-20T18:22:03.742Z,9.83
2023-05-20T18:24:52.246Z,9.70
2023-05-20T18:27:41.113Z,10.20
2023-05-20T18:30:29.705Z,11.57
2023-05-20T18:33:18.592Z,11.00
2023-05-20T18:36:08.961Z,11.20
2023-05-20T18:38:57.695Z,11.17
2023-05-20T18:41:47.492Z,10.63
2023-05-20T18:44:36.164Z,11.87
2023-05-20T18:47:24.761Z,10.90
2023-05-20T18:50:13.328Z,11.70
2023-05-20T18:53:03.219Z,12.10
2023-05-20T18:55:52.506Z,12.13
2023-05-20T18:58:41.070Z,11.97
2023-05-20T19:01:29.846Z,10.13
2023-05-20T19:04:18.392Z,12.37
2023-05-20T19:07:07.198Z,11.47
2023-05-20T19:09:57.109Z,12.03
2023-05-20T19:12:45.681Z,12.60
2023-05-20T19:15:34.392Z,11.90
2023-05-20T19:18:23.134Z,11.93
2023-05-20T19:21:11.662Z,13.73
2023-05-20T19:24:00.208Z,11.93
2023-05-20T19:26:50.080Z,13.10
2023-05-20T19:29:38.676Z,11.70
2023-05-20T19:32:27.248Z,14.33
2023-05-20T19:35:18.091Z,16.70
2023-05-20T19:38:06.849Z,16.37
2023-05-20T19:40:55.422Z,14.87
2023-05-20T19:43:45.552Z,13.83
2023-05-20T19:46:34.398Z,13.23
2023-05-20T19:49:24.733Z,13.67
2023-05-20T19:52:13.323Z,12.27
2023-05-20T19:55:02.050Z,13.50
2023-05-20T19:57:53.366Z,13.00
2023-05-20T20:00:43.257Z,14.30
2023-05-20T20:03:33.984Z,14.37
2023-05-20T20:06:22.583Z,14.60
2023-05-20T20:09:11.373Z,13.80
2023-05-20T20:11:59.902Z,14.30
2023-05-20T20:14:48.494Z,14.83
2023-05-20T20:17:45.921Z,14.93
2023-05-20T20:20:39.714Z,15.10
2023-05-20T20:23:28.444Z,14.87
2023-05-20T20:26:16.983Z,14.47
2023-05-20T20:29:05.599Z,14.03
2023-05-20T20:31:55.536Z,15.80
2023-05-20T20:34:45.842Z,14.90
2023-05-20T20:37:35.485Z,15.80
2023-05-20T20:40:25.547Z,15.93
2023-05-20T20:43:20.613Z,14.60
2023-05-20T20:46:11.349Z,15.60
2023-05-20T20:48:59.920Z,16.07
2023-05-20T20:51:50.982Z,15.33
2023-05-20T20:54:42.703Z,14.67
2023-05-20T20:57:31.996Z,15.27
2023-05-20T21:00:23.299Z,14.93
2023-05-20T21:03:12.008Z,16.27
2023-05-20T21:06:01.373Z,16.33
2023-05-20T21:08:53.131Z,15.33
2023-05-20T21:11:43.044Z,15.53
2023-05-20T21:14:31.587Z,16.73
2023-05-20T21:17:20.140Z,17.10
2023-05-20T21:20:09.725Z,16.20
2023-05-20T21:22:58.257Z,16.33
2023-05-20T21:25:48.404Z,15.57
2023-05-20T21:28:36.925Z,16.43
2023-05-20T21:31:25.524Z,15.73
2023-05-20T21:34:14.154Z,16.90
2023-05-20T21:37:02.685Z,16.20
2023-05-20T21:39:51.282Z,15.57
2023-05-20T21:42:41.189Z,15.83
2023-05-20T21:45:29.766Z,15.47
2023-05-20T21:48:18.292Z,15.33
2023-05-20T21:51:06.950Z,16.10
2023-05-20T21:53:55.475Z,15.43
2023-05-20T21:56:44.110Z,16.67
2023-05-20T21:59:33.991Z,16.80
2023-05-20T22:02:22.926Z,16.57
2023-05-20T22:05:12.829Z,17.80
2023-05-20T22:08:01.921Z,14.47
2023-05-20T22:10:50.555Z,16.80
2023-05-20T22:13:41.583Z,16.73
2023-05-20T22:16:31.544Z,16.00
2023-05-20T22:19:21.732Z,17.13
2023-05-20T22:22:10.650Z,16.43
2023-05-20T22:24:59.271Z,16.73
2023-05-20T22:27:48.218Z,17.70
2023-05-20T22:30:38.283Z,19.60
2023-05-20T22:33:28.222Z,19.40
2023-05-20T22:36:16.827Z,18.00
2023-05-20T22:39:06.926Z,22.10
2023-05-20T22:41:55.553Z,18.47
2023-05-20T22:44:44.058Z,17.73
2023-05-20T22:47:32.633Z,17.93
2023-05-20T22:50:23.929Z,18.57
2023-05-20T22:53:12.879Z,18.13
2023-05-20T22:56:01.456Z,18.93
2023-05-20T22:58:49.962Z,20.27
2023-05-20T23:01:38.892Z,19.17
2023-05-20T23:04:27.536Z,20.53
2023-05-20T23:07:19.280Z,18.97
2023-05-20T23:10:08.603Z,17.57
2023-05-20T23:12:57.225Z,17.93
2023-05-20T23:15:48.080Z,18.00
2023-05-20T23:18:36.658Z,18.97
2023-05-20T23:21:25.392Z,19.50
2023-05-20T23:24:16.931Z,20.10
2023-05-20T23:27:06.188Z,19.80
2023-05-20T23:29:54.890Z,18.60
2023-05-20T23:32:43.596Z,19.07
2023-05-20T23:35:32.177Z,20.53
2023-05-20T23:38:21.074Z,16.97
2023-05-20T23:41:10.996Z,19.00
2023-05-20T23:43:59.578Z,19.50
2023-05-20T23:46:49.418Z,19.60
2023-05-20T23:49:37.975Z,19.33
2023-05-20T23:52:26.939Z,18.60
2023-05-20T23:55:15.706Z,18.80
2023-05-20T23:58:05.631Z,19.37
